Bangor — FGE4786 — position and weather

sailwx.info

Track history (hours):
 
Tides and Currents Weather Stations Pressure Air Temp Water Temp Dewpoint Dewpoint Depression Visibility Wind Speed Wind Dir Waves Ship Positions

Bangor

Last reported at 2018-Jun-22 12:41 UTC. Time now 2018-Jun-22 13:31 UTC.
Position N 47°21' W 003°09'.

Length 46 m; draft 2.8 m.

Type: Passenger vessel. MMSI: 227644930.

Date/timePositionNaut miles runAvg speedWind from/ knotsBaromVisibWave heightAir tempDewpointWater temp
2018-Jun-22 12:41N 47°21' W 003°09'0 0.0
2018-Jun-22 12:28N 47°21' W 003°09'1 1.6
2018-Jun-22 11:58N 47°21' W 003°08'611.8
2018-Jun-22 11:30N 47°27' W 003°08'2 3.5
2018-Jun-22 11:00N 47°29' W 003°07'0 0.1
2018-Jun-22 10:30N 47°29' W 003°07'611.7
2018-Jun-22 10:01N 47°23' W 003°08'2 1.2
2018-Jun-22 08:16N 47°21' W 003°09'3 9.9
2018-Jun-22 07:59N 47°24' W 003°08'510.7
2018-Jun-22 07:31N 47°29' W 003°07'0 0.0
2018-Jun-22 07:01N 47°29' W 003°07'0 0.1
2018-Jun-22 06:30N 47°29' W 003°07'611.7
2018-Jun-22 06:00N 47°23' W 003°08'2 3.8
2018-Jun-22 05:29N 47°21' W 003°09'0 0.0
2018-Jun-21 18:59N 47°21' W 003°09'0 1.0
2018-Jun-21 18:30N 47°21' W 003°09'612.5
2018-Jun-21 18:00N 47°27' W 003°07'1 2.6
2018-Jun-21 17:30N 47°29' W 003°07'3 6.6
2018-Jun-21 17:00N 47°25' W 003°08'5 5.0
2018-Jun-21 16:06N 47°21' W 003°09'1 5.8
2018-Jun-21 15:59N 47°21' W 003°08'611.9
2018-Jun-21 15:30N 47°27' W 003°08'2 3.2
2018-Jun-21 15:00N 47°29' W 003°07'0 0.0
2018-Jun-21 14:30N 47°29' W 003°07'3 5.6
2018-Jun-21 14:00N 47°26' W 003°08'5 9.9
2018-Jun-21 13:30N 47°21' W 003°09'0 0.0
2018-Jun-21 12:00N 47°21' W 003°09'611.4
2018-Jun-21 11:30N 47°27' W 003°08'2 4.3
2018-Jun-21 11:00N 47°29' W 003°07'0 0.0
2018-Jun-21 10:30N 47°29' W 003°07'0 0.0
2018-Jun-21 10:00N 47°29' W 003°07'3 6.0
2018-Jun-21 09:30N 47°26' W 003°08'5 6.2
2018-Jun-21 08:43N 47°21' W 003°09'0 0.1
2018-Jun-21 08:15N 47°21' W 003°09'210.1
2018-Jun-21 08:00N 47°23' W 003°08'510.6
2018-Jun-21 07:29N 47°29' W 003°07'0 0.0
2018-Jun-21 07:00N 47°29' W 003°07'0 0.4
2018-Jun-21 06:30N 47°28' W 003°07'611.8
2018-Jun-21 06:00N 47°23' W 003°08'2 3.4
2018-Jun-21 05:26N 47°21' W 003°09'0 0.0
2018-Jun-20 18:56N 47°21' W 003°09'0 1.1
2018-Jun-20 18:30N 47°21' W 003°09'612.3
2018-Jun-20 18:00N 47°27' W 003°07'1 2.8
2018-Jun-20 17:30N 47°29' W 003°07'4 8.1
2018-Jun-20 17:00N 47°25' W 003°08'4 7.5
2018-Jun-20 16:30N 47°21' W 003°09'0 0.6
2018-Jun-20 16:00N 47°21' W 003°09'611.9
2018-Jun-20 15:30N 47°27' W 003°08'2 3.7
2018-Jun-20 15:00N 47°29' W 003°07'0 0.0
2018-Jun-20 14:30N 47°29' W 003°07'3 5.5
2018-Jun-20 14:00N 47°26' W 003°08'5 2.6
2018-Jun-20 12:00N 47°21' W 003°09'611.3
2018-Jun-20 11:30N 47°26' W 003°08'2 4.4
2018-Jun-20 11:00N 47°29' W 003°07'0 0.0
2018-Jun-20 10:30N 47°29' W 003°07'0 0.0
2018-Jun-20 10:00N 47°29' W 003°07'3 5.8
2018-Jun-20 09:30N 47°26' W 003°07'5 3.9
2018-Jun-20 08:13N 47°21' W 003°09'2 9.7
2018-Jun-20 07:59N 47°23' W 003°08'511.5
2018-Jun-20 07:31N 47°29' W 003°07'0 0.1
2018-Jun-20 07:00N 47°29' W 003°07'1 1.5
2018-Jun-20 06:30N 47°28' W 003°07'611.8
2018-Jun-20 06:00N 47°22' W 003°08'1 1.3
2018-Jun-20 04:56N 47°21' W 003°09'511.1
2018-Jun-20 04:30N 47°26' W 003°08'3 6.0
2018-Jun-20 04:00N 47°29' W 003°07'1 1.3
2018-Jun-20 03:30N 47°28' W 003°07'612.1
2018-Jun-20 03:00N 47°22' W 003°08'1 0.1
2018-Jun-19 18:49N 47°21' W 003°09'0 0.1
2018-Jun-19 18:30N 47°21' W 003°09'510.9
2018-Jun-19 18:01N 47°26' W 003°08'3 5.1
2018-Jun-19 17:30N 47°29' W 003°07'3 5.5
2018-Jun-19 17:00N 47°26' W 003°08'5 9.1
2018-Jun-19 16:26N 47°21' W 003°09'0 0.1
2018-Jun-19 16:00N 47°21' W 003°09'611.0
2018-Jun-19 15:30N 47°26' W 003°08'2 4.6
2018-Jun-19 15:00N 47°29' W 003°07'0 0.0
2018-Jun-19 14:30N 47°29' W 003°07'3 6.4
2018-Jun-19 14:00N 47°25' W 003°08'5 3.7
2018-Jun-19 12:44N 47°21' W 003°09'0 0.0
2018-Jun-19 12:04N 47°21' W 003°09'1 7.2
2018-Jun-19 11:58N 47°21' W 003°08'511.5
2018-Jun-19 11:31N 47°27' W 003°08'2 4.2
2018-Jun-19 11:00N 47°29' W 003°07'0 0.0
2018-Jun-19 10:30N 47°29' W 003°07'0 0.0
2018-Jun-19 10:00N 47°29' W 003°07'3 6.3
2018-Jun-19 09:30N 47°25' W 003°08'5 3.8
2018-Jun-19 08:16N 47°21' W 003°09'511.0
2018-Jun-19 07:48N 47°26' W 003°08'3 9.4
2018-Jun-19 07:31N 47°29' W 003°07'0 0.0
2018-Jun-19 07:00N 47°29' W 003°07'0 0.3
2018-Jun-19 06:30N 47°29' W 003°07'611.9
2018-Jun-19 06:01N 47°23' W 003°08'2 0.2
2018-Jun-18 18:50N 47°21' W 003°09'0 0.1
2018-Jun-18 18:29N 47°21' W 003°09'511.5
2018-Jun-18 18:00N 47°26' W 003°08'2 4.9
2018-Jun-18 17:30N 47°29' W 003°07'3 5.4
2018-Jun-18 17:00N 47°26' W 003°08'5 9.9
2018-Jun-18 16:29N 47°21' W 003°09'0 0.0
2018-Jun-18 15:59N 47°21' W 003°09'511.1
2018-Jun-18 15:30N 47°26' W 003°08'2 5.0
2018-Jun-18 15:00N 47°29' W 003°07'0 0.0
2018-Jun-18 14:30N 47°29' W 003°07'3 6.2
2018-Jun-18 14:00N 47°26' W 003°08'5 2.4
2018-Jun-18 12:02N 47°21' W 003°09'0 5.9
2018-Jun-18 12:00N 47°21' W 003°09'611.6
2018-Jun-18 11:30N 47°26' W 003°08'2 4.4
2018-Jun-18 11:00N 47°29' W 003°07'0 0.0
2018-Jun-18 10:30N 47°29' W 003°07'0 0.0
2018-Jun-18 10:00N 47°29' W 003°07'4 7.3
2018-Jun-18 09:30N 47°25' W 003°08'4 3.5
2018-Jun-18 08:17N 47°21' W 003°09'410.7
2018-Jun-18 07:55N 47°25' W 003°08'4 9.8
2018-Jun-18 07:30N 47°29' W 003°07'0 0.0
2018-Jun-18 07:00N 47°29' W 003°07'0 0.7
2018-Jun-18 06:31N 47°28' W 003°07'611.1
2018-Jun-18 06:00N 47°23' W 003°08'2 1.9
2018-Jun-18 04:57N 47°21' W 003°09'511.0
2018-Jun-18 04:30N 47°26' W 003°08'3 5.9
2018-Jun-18 03:59N 47°29' W 003°07'2 3.8
2018-Jun-18 03:30N 47°27' W 003°08'611.7
2018-Jun-18 03:00N 47°21' W 003°09'0 0.1
2018-Jun-17 18:55N 47°21' W 003°09'2 4.0
2018-Jun-17 18:24N 47°23' W 003°08'512.3
2018-Jun-17 18:00N 47°28' W 003°07'1 1.7
2018-Jun-17 17:30N 47°29' W 003°07'5 9.7
2018-Jun-17 17:00N 47°24' W 003°08'3 3.3
2018-Jun-17 16:05N 47°21' W 003°09'310.4
2018-Jun-17 15:45N 47°24' W 003°08'312.0
2018-Jun-17 15:30N 47°27' W 003°08'1 2.8
2018-Jun-17 15:00N 47°29' W 003°07'0 0.0
2018-Jun-17 14:30N 47°29' W 003°07'3 6.8
2018-Jun-17 14:00N 47°25' W 003°08'4 2.6
2018-Jun-17 12:17N 47°21' W 003°09'1 2.7
2018-Jun-17 11:56N 47°22' W 003°08'511.6
2018-Jun-17 11:30N 47°27' W 003°08'2 4.1
2018-Jun-17 11:00N 47°29' W 003°07'0 0.1
2018-Jun-17 10:30N 47°29' W 003°07'611.7
2018-Jun-17 10:00N 47°23' W 003°08'2 3.1
2018-Jun-17 09:22N 47°21' W 003°09'0 0.0
2018-Jun-17 08:19N 47°21' W 003°09'2 7.2
2018-Jun-17 08:00N 47°23' W 003°08'611.4
2018-Jun-17 07:30N 47°29' W 003°07'0 0.0
2018-Jun-17 07:00N 47°29' W 003°07'0 0.5
2018-Jun-17 06:30N 47°28' W 003°07'611.4
2018-Jun-17 06:00N 47°23' W 003°08'2 2.3
2018-Jun-17 05:10N 47°21' W 003°09'0 0.0
2018-Jun-16 18:46N 47°21' W 003°09'0 0.6
2018-Jun-16 18:29N 47°21' W 003°09'612.4
2018-Jun-16 18:00N 47°27' W 003°08'2 3.6
2018-Jun-16 17:30N 47°29' W 003°07'3 6.5
2018-Jun-16 17:00N 47°25' W 003°07'5 4.9
2018-Jun-16 16:03N 47°21' W 003°09'0 5.4
2018-Jun-16 16:01N 47°21' W 003°09'612.1
2018-Jun-16 15:30N 47°27' W 003°07'2 3.4
2018-Jun-16 15:00N 47°29' W 003°07'0 0.0
2018-Jun-16 14:31N 47°29' W 003°07'3 6.3
2018-Jun-16 14:00N 47°25' W 003°08'5 3.8
2018-Jun-16 12:47N 47°21' W 003°09'3 9.6
2018-Jun-16 12:30N 47°24' W 003°08'510.2
2018-Jun-16 12:00N 47°29' W 003°07'0 0.0
2018-Jun-16 11:30N 47°29' W 003°07'0 0.0
2018-Jun-16 10:59N 47°29' W 003°07'0 0.1
2018-Jun-16 10:31N 47°29' W 003°07'611.5
2018-Jun-16 10:00N 47°23' W 003°08'2 1.2
2018-Jun-16 08:14N 47°21' W 003°09'2 9.2
2018-Jun-16 08:00N 47°23' W 003°08'611.4
2018-Jun-16 07:30N 47°29' W 003°07'0 0.0
2018-Jun-16 07:00N 47°29' W 003°07'0 0.8
2018-Jun-16 06:30N 47°28' W 003°07'611.2
2018-Jun-16 06:00N 47°23' W 003°08'2 3.2
2018-Jun-16 05:24N 47°21' W 003°09'0 0.1
2018-Jun-16 05:00N 47°21' W 003°09'0 0.0
2018-Jun-15 18:59N 47°21' W 003°09'4 5.8
2018-Jun-15 18:15N 47°25' W 003°08'312.5
2018-Jun-15 18:00N 47°28' W 003°07'0 1.0
2018-Jun-15 17:30N 47°29' W 003°07'3 5.7
2018-Jun-15 17:00N 47°26' W 003°08'5 4.3
2018-Jun-15 15:50N 47°21' W 003°09'0 0.1
2018-Jun-15 15:22N 47°21' W 003°09'410.8
2018-Jun-15 15:00N 47°25' W 003°08'4 8.0
2018-Jun-15 14:30N 47°29' W 003°07'0 0.0
2018-Jun-15 14:00N 47°29' W 003°07'3 6.5
2018-Jun-15 13:30N 47°25' W 003°08'5 5.5
2018-Jun-15 12:40N 47°21' W 003°09'0 0.1
2018-Jun-15 12:16N 47°21' W 003°09'310.6
2018-Jun-15 11:58N 47°24' W 003°08'510.3
2018-Jun-15 11:30N 47°29' W 003°07'0 0.0
2018-Jun-15 11:00N 47°29' W 003°07'0 0.0
2018-Jun-15 10:29N 47°29' W 003°07'0 0.0
2018-Jun-15 09:59N 47°29' W 003°07'3 6.7
2018-Jun-15 09:30N 47°25' W 003°08'5 4.1
2018-Jun-15 08:22N 47°21' W 003°09'410.1
2018-Jun-15 08:00N 47°25' W 003°09'4 8.4
2018-Jun-15 07:30N 47°29' W 003°07'0 0.0
2018-Jun-15 07:00N 47°29' W 003°07'0 0.5
2018-Jun-15 06:31N 47°28' W 003°07'611.6
2018-Jun-15 06:00N 47°23' W 003°08'2 2.3
2018-Jun-15 05:10N 47°21' W 003°09'0 0.1
2018-Jun-15 05:00N 47°21' W 003°09'1 0.1
2018-Jun-14 18:51N 47°22' W 003°08'412.7
2018-Jun-14 18:30N 47°26' W 003°08'2 4.6
2018-Jun-14 18:00N 47°29' W 003°07'2 4.9
2018-Jun-14 17:30N 47°26' W 003°08'5 3.4
2018-Jun-14 15:56N 47°21' W 003°09'511.6
2018-Jun-14 15:30N 47°26' W 003°08'3 6.0
2018-Jun-14 15:00N 47°29' W 003°07'0 0.0
2018-Jun-14 14:30N 47°29' W 003°07'4 8.3
2018-Jun-14 14:00N 47°24' W 003°08'4 3.2
2018-Jun-14 12:49N 47°21' W 003°09'310.6
2018-Jun-14 12:30N 47°24' W 003°08'5 9.0
2018-Jun-14 12:00N 47°29' W 003°07'0 0.0
2018-Jun-14 11:30N 47°29' W 003°07'5 9.3
2018-Jun-14 11:00N 47°24' W 003°07'3 1.3
2018-Jun-14 08:25N 47°21' W 003°09'3 8.2
2018-Jun-14 08:00N 47°24' W 003°08'5 9.1
2018-Jun-14 07:30N 47°29' W 003°07'0 0.0
2018-Jun-14 06:59N 47°29' W 003°07'0 0.3
2018-Jun-14 06:30N 47°29' W 003°07'611.9
2018-Jun-14 06:00N 47°23' W 003°08'2 3.4
2018-Jun-14 05:27N 47°21' W 003°09'0 0.0
2018-Jun-13 18:53N 47°21' W 003°09'1 1.6
2018-Jun-13 18:30N 47°21' W 003°08'612.6
2018-Jun-13 18:00N 47°28' W 003°07'1 2.1
2018-Jun-13 17:30N 47°29' W 003°07'3 6.1
2018-Jun-13 17:00N 47°26' W 003°08'5 8.5
2018-Jun-13 16:26N 47°21' W 003°09'0 0.0
2018-Jun-13 16:00N 47°21' W 003°09'511.2
2018-Jun-13 15:30N 47°26' W 003°08'2 4.8
2018-Jun-13 15:00N 47°29' W 003°07'0 0.0
2018-Jun-13 14:30N 47°29' W 003°07'3 5.8
2018-Jun-13 14:00N 47°26' W 003°08'5 9.0
2018-Jun-13 13:27N 47°21' W 003°09'0 0.0
2018-Jun-13 12:10N 47°21' W 003°09'0 0.2
2018-Jun-13 12:00N 47°21' W 003°09'611.1
2018-Jun-13 11:30N 47°26' W 003°07'2 4.6
2018-Jun-13 11:00N 47°29' W 003°07'0 0.0
2018-Jun-13 10:30N 47°29' W 003°07'4 7.0
2018-Jun-13 10:00N 47°25' W 003°08'4 2.5
2018-Jun-13 08:17N 47°21' W 003°09'310.0
2018-Jun-13 08:00N 47°24' W 003°08'510.2
2018-Jun-13 07:30N 47°29' W 003°07'0 0.0
2018-Jun-13 07:00N 47°29' W 003°07'0 0.0
2018-Jun-13 06:30N 47°29' W 003°07'611.0
2018-Jun-13 06:00N 47°23' W 003°08'2 2.7
2018-Jun-13 05:08N 47°21' W 003°09'2 0.2
2018-Jun-12 18:17N 47°23' W 003°08'312.0
2018-Jun-12 18:00N 47°26' W 003°08'3 5.6
2018-Jun-12 17:30N 47°29' W 003°07'2 5.0
2018-Jun-12 17:00N 47°26' W 003°08'5 9.9
2018-Jun-12 16:28N 47°21' W 003°09'0 0.1
2018-Jun-12 16:01N 47°21' W 003°09'611.8
2018-Jun-12 15:30N 47°27' W 003°08'2 3.9
2018-Jun-12 15:00N 47°29' W 003°07'0 0.0
2018-Jun-12 14:30N 47°29' W 003°07'3 5.7
2018-Jun-12 13:59N 47°26' W 003°08'  
Track history (hours):
 
Tides and Currents Weather Stations Pressure Air Temp Water Temp Dewpoint Dewpoint Depression Visibility Wind Speed Wind Dir Waves Ship Positions

Bangor

Last reported at 2018-Jun-22 12:41 UTC. Time now 2018-Jun-22 13:31 UTC.
Position N 47°21' W 003°09'.

Length 46 m; draft 2.8 m.

Type: Passenger vessel. MMSI: 227644930.

Date/timePositionNaut miles runAvg speedWind from/ knotsBaromVisibWave heightAir tempDewpointWater temp
2018-Jun-22 12:41N 47°21' W 003°09'0 0.0
2018-Jun-22 12:28N 47°21' W 003°09'1 1.6
2018-Jun-22 11:58N 47°21' W 003°08'611.8
2018-Jun-22 11:30N 47°27' W 003°08'2 3.5
2018-Jun-22 11:00N 47°29' W 003°07'0 0.1
2018-Jun-22 10:30N 47°29' W 003°07'611.7
2018-Jun-22 10:01N 47°23' W 003°08'2 1.2
2018-Jun-22 08:16N 47°21' W 003°09'3 9.9
2018-Jun-22 07:59N 47°24' W 003°08'510.7
2018-Jun-22 07:31N 47°29' W 003°07'0 0.0
2018-Jun-22 07:01N 47°29' W 003°07'0 0.1
2018-Jun-22 06:30N 47°29' W 003°07'611.7
2018-Jun-22 06:00N 47°23' W 003°08'2 3.8
2018-Jun-22 05:29N 47°21' W 003°09'0 0.0
2018-Jun-21 18:59N 47°21' W 003°09'0 1.0
2018-Jun-21 18:30N 47°21' W 003°09'612.5
2018-Jun-21 18:00N 47°27' W 003°07'1 2.6
2018-Jun-21 17:30N 47°29' W 003°07'3 6.6
2018-Jun-21 17:00N 47°25' W 003°08'5 5.0
2018-Jun-21 16:06N 47°21' W 003°09'1 5.8
2018-Jun-21 15:59N 47°21' W 003°08'611.9
2018-Jun-21 15:30N 47°27' W 003°08'2 3.2
2018-Jun-21 15:00N 47°29' W 003°07'0 0.0
2018-Jun-21 14:30N 47°29' W 003°07'3 5.6
2018-Jun-21 14:00N 47°26' W 003°08'5 9.9
2018-Jun-21 13:30N 47°21' W 003°09'0 0.0
2018-Jun-21 12:00N 47°21' W 003°09'611.4
2018-Jun-21 11:30N 47°27' W 003°08'2 4.3
2018-Jun-21 11:00N 47°29' W 003°07'0 0.0
2018-Jun-21 10:30N 47°29' W 003°07'0 0.0
2018-Jun-21 10:00N 47°29' W 003°07'3 6.0
2018-Jun-21 09:30N 47°26' W 003°08'5 6.2
2018-Jun-21 08:43N 47°21' W 003°09'0 0.1
2018-Jun-21 08:15N 47°21' W 003°09'210.1
2018-Jun-21 08:00N 47°23' W 003°08'510.6
2018-Jun-21 07:29N 47°29' W 003°07'0 0.0
2018-Jun-21 07:00N 47°29' W 003°07'0 0.4
2018-Jun-21 06:30N 47°28' W 003°07'611.8
2018-Jun-21 06:00N 47°23' W 003°08'2 3.4
2018-Jun-21 05:26N 47°21' W 003°09'0 0.0
2018-Jun-20 18:56N 47°21' W 003°09'0 1.1
2018-Jun-20 18:30N 47°21' W 003°09'612.3
2018-Jun-20 18:00N 47°27' W 003°07'1 2.8
2018-Jun-20 17:30N 47°29' W 003°07'4 8.1
2018-Jun-20 17:00N 47°25' W 003°08'4 7.5
2018-Jun-20 16:30N 47°21' W 003°09'0 0.6
2018-Jun-20 16:00N 47°21' W 003°09'611.9
2018-Jun-20 15:30N 47°27' W 003°08'2 3.7
2018-Jun-20 15:00N 47°29' W 003°07'0 0.0
2018-Jun-20 14:30N 47°29' W 003°07'3 5.5
2018-Jun-20 14:00N 47°26' W 003°08'5 2.6
2018-Jun-20 12:00N 47°21' W 003°09'611.3
2018-Jun-20 11:30N 47°26' W 003°08'2 4.4
2018-Jun-20 11:00N 47°29' W 003°07'0 0.0
2018-Jun-20 10:30N 47°29' W 003°07'0 0.0
2018-Jun-20 10:00N 47°29' W 003°07'3 5.8
2018-Jun-20 09:30N 47°26' W 003°07'5 3.9
2018-Jun-20 08:13N 47°21' W 003°09'2 9.7
2018-Jun-20 07:59N 47°23' W 003°08'511.5
2018-Jun-20 07:31N 47°29' W 003°07'0 0.1
2018-Jun-20 07:00N 47°29' W 003°07'1 1.5
2018-Jun-20 06:30N 47°28' W 003°07'611.8
2018-Jun-20 06:00N 47°22' W 003°08'1 1.3
2018-Jun-20 04:56N 47°21' W 003°09'511.1
2018-Jun-20 04:30N 47°26' W 003°08'3 6.0
2018-Jun-20 04:00N 47°29' W 003°07'1 1.3
2018-Jun-20 03:30N 47°28' W 003°07'612.1
2018-Jun-20 03:00N 47°22' W 003°08'1 0.1
2018-Jun-19 18:49N 47°21' W 003°09'0 0.1
2018-Jun-19 18:30N 47°21' W 003°09'510.9
2018-Jun-19 18:01N 47°26' W 003°08'3 5.1
2018-Jun-19 17:30N 47°29' W 003°07'3 5.5
2018-Jun-19 17:00N 47°26' W 003°08'5 9.1
2018-Jun-19 16:26N 47°21' W 003°09'0 0.1
2018-Jun-19 16:00N 47°21' W 003°09'611.0
2018-Jun-19 15:30N 47°26' W 003°08'2 4.6
2018-Jun-19 15:00N 47°29' W 003°07'0 0.0
2018-Jun-19 14:30N 47°29' W 003°07'3 6.4
2018-Jun-19 14:00N 47°25' W 003°08'5 3.7
2018-Jun-19 12:44N 47°21' W 003°09'0 0.0
2018-Jun-19 12:04N 47°21' W 003°09'1 7.2
2018-Jun-19 11:58N 47°21' W 003°08'511.5
2018-Jun-19 11:31N 47°27' W 003°08'2 4.2
2018-Jun-19 11:00N 47°29' W 003°07'0 0.0
2018-Jun-19 10:30N 47°29' W 003°07'0 0.0
2018-Jun-19 10:00N 47°29' W 003°07'3 6.3
2018-Jun-19 09:30N 47°25' W 003°08'5 3.8
2018-Jun-19 08:16N 47°21' W 003°09'511.0
2018-Jun-19 07:48N 47°26' W 003°08'3 9.4
2018-Jun-19 07:31N 47°29' W 003°07'0 0.0
2018-Jun-19 07:00N 47°29' W 003°07'0 0.3
2018-Jun-19 06:30N 47°29' W 003°07'611.9
2018-Jun-19 06:01N 47°23' W 003°08'2 0.2
2018-Jun-18 18:50N 47°21' W 003°09'0 0.1
2018-Jun-18 18:29N 47°21' W 003°09'511.5
2018-Jun-18 18:00N 47°26' W 003°08'2 4.9
2018-Jun-18 17:30N 47°29' W 003°07'3 5.4
2018-Jun-18 17:00N 47°26' W 003°08'5 9.9
2018-Jun-18 16:29N 47°21' W 003°09'0 0.0
2018-Jun-18 15:59N 47°21' W 003°09'511.1
2018-Jun-18 15:30N 47°26' W 003°08'2 5.0
2018-Jun-18 15:00N 47°29' W 003°07'0 0.0
2018-Jun-18 14:30N 47°29' W 003°07'3 6.2
2018-Jun-18 14:00N 47°26' W 003°08'5 2.4
2018-Jun-18 12:02N 47°21' W 003°09'0 5.9
2018-Jun-18 12:00N 47°21' W 003°09'611.6
2018-Jun-18 11:30N 47°26' W 003°08'2 4.4
2018-Jun-18 11:00N 47°29' W 003°07'0 0.0
2018-Jun-18 10:30N 47°29' W 003°07'0 0.0
2018-Jun-18 10:00N 47°29' W 003°07'4 7.3
2018-Jun-18 09:30N 47°25' W 003°08'4 3.5
2018-Jun-18 08:17N 47°21' W 003°09'410.7
2018-Jun-18 07:55N 47°25' W 003°08'4 9.8
2018-Jun-18 07:30N 47°29' W 003°07'0 0.0
2018-Jun-18 07:00N 47°29' W 003°07'0 0.7
2018-Jun-18 06:31N 47°28' W 003°07'611.1
2018-Jun-18 06:00N 47°23' W 003°08'2 1.9
2018-Jun-18 04:57N 47°21' W 003°09'511.0
2018-Jun-18 04:30N 47°26' W 003°08'3 5.9
2018-Jun-18 03:59N 47°29' W 003°07'2 3.8
2018-Jun-18 03:30N 47°27' W 003°08'611.7
2018-Jun-18 03:00N 47°21' W 003°09'0 0.1
2018-Jun-17 18:55N 47°21' W 003°09'2 4.0
2018-Jun-17 18:24N 47°23' W 003°08'512.3
2018-Jun-17 18:00N 47°28' W 003°07'1 1.7
2018-Jun-17 17:30N 47°29' W 003°07'5 9.7
2018-Jun-17 17:00N 47°24' W 003°08'3 3.3
2018-Jun-17 16:05N 47°21' W 003°09'310.4
2018-Jun-17 15:45N 47°24' W 003°08'312.0
2018-Jun-17 15:30N 47°27' W 003°08'1 2.8
2018-Jun-17 15:00N 47°29' W 003°07'0 0.0
2018-Jun-17 14:30N 47°29' W 003°07'3 6.8
2018-Jun-17 14:00N 47°25' W 003°08'4 2.6
2018-Jun-17 12:17N 47°21' W 003°09'1 2.7
2018-Jun-17 11:56N 47°22' W 003°08'511.6
2018-Jun-17 11:30N 47°27' W 003°08'2 4.1
2018-Jun-17 11:00N 47°29' W 003°07'0 0.1
2018-Jun-17 10:30N 47°29' W 003°07'611.7
2018-Jun-17 10:00N 47°23' W 003°08'2 3.1
2018-Jun-17 09:22N 47°21' W 003°09'0 0.0
2018-Jun-17 08:19N 47°21' W 003°09'2 7.2
2018-Jun-17 08:00N 47°23' W 003°08'611.4
2018-Jun-17 07:30N 47°29' W 003°07'0 0.0
2018-Jun-17 07:00N 47°29' W 003°07'0 0.5
2018-Jun-17 06:30N 47°28' W 003°07'611.4
2018-Jun-17 06:00N 47°23' W 003°08'2 2.3
2018-Jun-17 05:10N 47°21' W 003°09'0 0.0
2018-Jun-16 18:46N 47°21' W 003°09'0 0.6
2018-Jun-16 18:29N 47°21' W 003°09'612.4
2018-Jun-16 18:00N 47°27' W 003°08'2 3.6
2018-Jun-16 17:30N 47°29' W 003°07'3 6.5
2018-Jun-16 17:00N 47°25' W 003°07'5 4.9
2018-Jun-16 16:03N 47°21' W 003°09'0 5.4
2018-Jun-16 16:01N 47°21' W 003°09'612.1
2018-Jun-16 15:30N 47°27' W 003°07'2 3.4
2018-Jun-16 15:00N 47°29' W 003°07'0 0.0
2018-Jun-16 14:31N 47°29' W 003°07'3 6.3
2018-Jun-16 14:00N 47°25' W 003°08'5 3.8
2018-Jun-16 12:47N 47°21' W 003°09'3 9.6
2018-Jun-16 12:30N 47°24' W 003°08'510.2
2018-Jun-16 12:00N 47°29' W 003°07'0 0.0
2018-Jun-16 11:30N 47°29' W 003°07'0 0.0
2018-Jun-16 10:59N 47°29' W 003°07'0 0.1
2018-Jun-16 10:31N 47°29' W 003°07'611.5
2018-Jun-16 10:00N 47°23' W 003°08'2 1.2
2018-Jun-16 08:14N 47°21' W 003°09'2 9.2
2018-Jun-16 08:00N 47°23' W 003°08'611.4
2018-Jun-16 07:30N 47°29' W 003°07'0 0.0
2018-Jun-16 07:00N 47°29' W 003°07'0 0.8
2018-Jun-16 06:30N 47°28' W 003°07'611.2
2018-Jun-16 06:00N 47°23' W 003°08'2 3.2
2018-Jun-16 05:24N 47°21' W 003°09'0 0.1
2018-Jun-16 05:00N 47°21' W 003°09'0 0.0
2018-Jun-15 18:59N 47°21' W 003°09'4 5.8
2018-Jun-15 18:15N 47°25' W 003°08'312.5
2018-Jun-15 18:00N 47°28' W 003°07'0 1.0
2018-Jun-15 17:30N 47°29' W 003°07'3 5.7
2018-Jun-15 17:00N 47°26' W 003°08'5 4.3
2018-Jun-15 15:50N 47°21' W 003°09'0 0.1
2018-Jun-15 15:22N 47°21' W 003°09'410.8
2018-Jun-15 15:00N 47°25' W 003°08'4 8.0
2018-Jun-15 14:30N 47°29' W 003°07'0 0.0
2018-Jun-15 14:00N 47°29' W 003°07'3 6.5
2018-Jun-15 13:30N 47°25' W 003°08'5 5.5
2018-Jun-15 12:40N 47°21' W 003°09'0 0.1
2018-Jun-15 12:16N 47°21' W 003°09'310.6
2018-Jun-15 11:58N 47°24' W 003°08'510.3
2018-Jun-15 11:30N 47°29' W 003°07'0 0.0
2018-Jun-15 11:00N 47°29' W 003°07'0 0.0
2018-Jun-15 10:29N 47°29' W 003°07'0 0.0
2018-Jun-15 09:59N 47°29' W 003°07'3 6.7
2018-Jun-15 09:30N 47°25' W 003°08'5 4.1
2018-Jun-15 08:22N 47°21' W 003°09'410.1
2018-Jun-15 08:00N 47°25' W 003°09'4 8.4
2018-Jun-15 07:30N 47°29' W 003°07'0 0.0
2018-Jun-15 07:00N 47°29' W 003°07'0 0.5
2018-Jun-15 06:31N 47°28' W 003°07'611.6
2018-Jun-15 06:00N 47°23' W 003°08'2 2.3
2018-Jun-15 05:10N 47°21' W 003°09'0 0.1
2018-Jun-15 05:00N 47°21' W 003°09'1 0.1
2018-Jun-14 18:51N 47°22' W 003°08'412.7
2018-Jun-14 18:30N 47°26' W 003°08'2 4.6
2018-Jun-14 18:00N 47°29' W 003°07'2 4.9
2018-Jun-14 17:30N 47°26' W 003°08'5 3.4
2018-Jun-14 15:56N 47°21' W 003°09'511.6
2018-Jun-14 15:30N 47°26' W 003°08'3 6.0
2018-Jun-14 15:00N 47°29' W 003°07'0 0.0
2018-Jun-14 14:30N 47°29' W 003°07'4 8.3
2018-Jun-14 14:00N 47°24' W 003°08'4 3.2
2018-Jun-14 12:49N 47°21' W 003°09'310.6
2018-Jun-14 12:30N 47°24' W 003°08'5 9.0
2018-Jun-14 12:00N 47°29' W 003°07'0 0.0
2018-Jun-14 11:30N 47°29' W 003°07'5 9.3
2018-Jun-14 11:00N 47°24' W 003°07'3 1.3
2018-Jun-14 08:25N 47°21' W 003°09'3 8.2
2018-Jun-14 08:00N 47°24' W 003°08'5 9.1
2018-Jun-14 07:30N 47°29' W 003°07'0 0.0
2018-Jun-14 06:59N 47°29' W 003°07'0 0.3
2018-Jun-14 06:30N 47°29' W 003°07'611.9
2018-Jun-14 06:00N 47°23' W 003°08'2 3.4
2018-Jun-14 05:27N 47°21' W 003°09'0 0.0
2018-Jun-13 18:53N 47°21' W 003°09'1 1.6
2018-Jun-13 18:30N 47°21' W 003°08'612.6
2018-Jun-13 18:00N 47°28' W 003°07'1 2.1
2018-Jun-13 17:30N 47°29' W 003°07'3 6.1
2018-Jun-13 17:00N 47°26' W 003°08'5 8.5
2018-Jun-13 16:26N 47°21' W 003°09'0 0.0
2018-Jun-13 16:00N 47°21' W 003°09'511.2
2018-Jun-13 15:30N 47°26' W 003°08'2 4.8
2018-Jun-13 15:00N 47°29' W 003°07'0 0.0
2018-Jun-13 14:30N 47°29' W 003°07'3 5.8
2018-Jun-13 14:00N 47°26' W 003°08'5 9.0
2018-Jun-13 13:27N 47°21' W 003°09'0 0.0
2018-Jun-13 12:10N 47°21' W 003°09'0 0.2
2018-Jun-13 12:00N 47°21' W 003°09'611.1
2018-Jun-13 11:30N 47°26' W 003°07'2 4.6
2018-Jun-13 11:00N 47°29' W 003°07'0 0.0
2018-Jun-13 10:30N 47°29' W 003°07'4 7.0
2018-Jun-13 10:00N 47°25' W 003°08'4 2.5
2018-Jun-13 08:17N 47°21' W 003°09'310.0
2018-Jun-13 08:00N 47°24' W 003°08'510.2
2018-Jun-13 07:30N 47°29' W 003°07'0 0.0
2018-Jun-13 07:00N 47°29' W 003°07'0 0.0
2018-Jun-13 06:30N 47°29' W 003°07'611.0
2018-Jun-13 06:00N 47°23' W 003°08'2 2.7
2018-Jun-13 05:08N 47°21' W 003°09'2 0.2
2018-Jun-12 18:17N 47°23' W 003°08'312.0
2018-Jun-12 18:00N 47°26' W 003°08'3 5.6
2018-Jun-12 17:30N 47°29' W 003°07'2 5.0
2018-Jun-12 17:00N 47°26' W 003°08'5 9.9
2018-Jun-12 16:28N 47°21' W 003°09'0 0.1
2018-Jun-12 16:01N 47°21' W 003°09'611.8
2018-Jun-12 15:30N 47°27' W 003°08'2 3.9
2018-Jun-12 15:00N 47°29' W 003°07'0 0.0
2018-Jun-12 14:30N 47°29' W 003°07'3 5.7
2018-Jun-12 13:59N 47°26' W 003°08'  

Dump ship's entire track history